Terminal Aerodrome Forecast
Issued by NWS Twin Cities, MN

Home | Current Version | Previous Version | Graphics & Text | Print | Product List | Glossary On
Versions: 1 2 3 4 5 6 7 8 9 10 11 12 13 14 15 16 17 18 19 20 21 22 23 24 25 26 27 28 29 30
000
FTUS43 KMPX 311000 AAC
TAFMSP
TAF AMD
KMSP 311032Z 3111/0112 13009KT 5SM BR OVC004
     FM311400 14011KT P6SM VCSH SCT007 BKN090
     FM311600 16015G22KT P6SM SCT090
     FM312100 17014G22KT P6SM VCTS SCT040CB BKN070
      TEMPO 0101/0104 1SM TSRA BKN020CB OVC050
     FM010400 19008KT P6SM VCSH SCT020 BKN080
     FM010900 25006KT P6SM SCT100=

USA.gov is the U.S. government's official web portal to all federal, state and local government web resources and services.